sensor_id;sensor_type;location;lat;lon;timestamp;P1;durP1;ratioP1;P2;durP2;ratioP2
72569;SDS011;60594;50.204;8.844;2024-02-21T00:02:31;9.32;;;3.17;;
72569;SDS011;60594;50.204;8.844;2024-02-21T00:05:15;7.30;;;2.65;;
72569;SDS011;60594;50.204;8.844;2024-02-21T00:08:01;10.68;;;3.00;;
72569;SDS011;60594;50.204;8.844;2024-02-21T00:13:33;12.15;;;2.90;;
72569;SDS011;60594;50.204;8.844;2024-02-21T00:16:18;8.00;;;2.67;;
72569;SDS011;60594;50.204;8.844;2024-02-21T00:19:03;11.02;;;3.28;;
72569;SDS011;60594;50.204;8.844;2024-02-21T00:21:49;10.18;;;3.05;;
72569;SDS011;60594;50.204;8.844;2024-02-21T00:24:33;7.03;;;2.92;;
72569;SDS011;60594;50.204;8.844;2024-02-21T00:27:18;9.05;;;3.55;;
72569;SDS011;60594;50.204;8.844;2024-02-21T00:30:03;11.00;;;3.30;;
72569;SDS011;60594;50.204;8.844;2024-02-21T00:32:49;9.07;;;3.10;;
72569;SDS011;60594;50.204;8.844;2024-02-21T00:35:33;9.52;;;3.55;;
72569;SDS011;60594;50.204;8.844;2024-02-21T00:38:19;11.88;;;3.70;;
72569;SDS011;60594;50.204;8.844;2024-02-21T00:41:03;10.45;;;3.63;;
72569;SDS011;60594;50.204;8.844;2024-02-21T00:43:48;7.82;;;3.08;;
72569;SDS011;60594;50.204;8.844;2024-02-21T00:46:34;9.07;;;3.58;;
72569;SDS011;60594;50.204;8.844;2024-02-21T00:49:19;12.25;;;3.20;;
72569;SDS011;60594;50.204;8.844;2024-02-21T00:52:04;8.13;;;3.17;;
72569;SDS011;60594;50.204;8.844;2024-02-21T00:54:49;8.50;;;3.25;;
72569;SDS011;60594;50.204;8.844;2024-02-21T00:57:34;10.20;;;3.50;;
72569;SDS011;60594;50.204;8.844;2024-02-21T01:00:19;12.35;;;4.30;;
72569;SDS011;60594;50.204;8.844;2024-02-21T01:03:04;8.40;;;3.55;;
72569;SDS011;60594;50.204;8.844;2024-02-21T01:05:49;12.27;;;3.97;;
72569;SDS011;60594;50.204;8.844;2024-02-21T01:08:34;9.02;;;4.32;;
72569;SDS011;60594;50.204;8.844;2024-02-21T01:11:19;13.02;;;4.57;;
72569;SDS011;60594;50.204;8.844;2024-02-21T01:14:04;12.15;;;4.13;;
72569;SDS011;60594;50.204;8.844;2024-02-21T01:16:49;9.90;;;4.00;;
72569;SDS011;60594;50.204;8.844;2024-02-21T01:19:34;8.63;;;3.60;;
72569;SDS011;60594;50.204;8.844;2024-02-21T01:22:19;10.02;;;4.20;;
72569;SDS011;60594;50.204;8.844;2024-02-21T01:25:04;12.23;;;4.15;;
72569;SDS011;60594;50.204;8.844;2024-02-21T01:27:49;8.68;;;4.00;;
72569;SDS011;60594;50.204;8.844;2024-02-21T01:30:34;12.23;;;4.18;;
72569;SDS011;60594;50.204;8.844;2024-02-21T01:33:19;10.15;;;4.22;;
72569;SDS011;60594;50.204;8.844;2024-02-21T01:36:04;10.70;;;4.13;;
72569;SDS011;60594;50.204;8.844;2024-02-21T01:38:52;12.20;;;3.95;;
72569;SDS011;60594;50.204;8.844;2024-02-21T01:41:37;9.85;;;3.70;;
72569;SDS011;60594;50.204;8.844;2024-02-21T01:44:22;9.30;;;4.13;;
72569;SDS011;60594;50.204;8.844;2024-02-21T01:47:07;10.95;;;4.03;;
72569;SDS011;60594;50.204;8.844;2024-02-21T01:49:52;12.65;;;4.15;;
72569;SDS011;60594;50.204;8.844;2024-02-21T01:52:37;10.80;;;4.80;;
72569;SDS011;60594;50.204;8.844;2024-02-21T01:55:22;9.73;;;4.28;;
72569;SDS011;60594;50.204;8.844;2024-02-21T01:58:07;10.27;;;3.97;;
72569;SDS011;60594;50.204;8.844;2024-02-21T02:00:52;11.90;;;3.70;;
72569;SDS011;60594;50.204;8.844;2024-02-21T02:03:38;10.18;;;4.03;;
72569;SDS011;60594;50.204;8.844;2024-02-21T02:06:24;9.52;;;3.90;;
72569;SDS011;60594;50.204;8.844;2024-02-21T02:09:09;9.43;;;3.60;;
72569;SDS011;60594;50.204;8.844;2024-02-21T02:11:54;8.15;;;4.10;;
72569;SDS011;60594;50.204;8.844;2024-02-21T02:14:39;10.20;;;3.78;;
72569;SDS011;60594;50.204;8.844;2024-02-21T02:17:24;8.75;;;3.95;;
72569;SDS011;60594;50.204;8.844;2024-02-21T02:20:09;12.52;;;3.92;;
72569;SDS011;60594;50.204;8.844;2024-02-21T02:22:55;11.40;;;4.00;;
72569;SDS011;60594;50.204;8.844;2024-02-21T02:25:40;14.25;;;5.63;;
72569;SDS011;60594;50.204;8.844;2024-02-21T02:28:25;12.02;;;4.03;;
72569;SDS011;60594;50.204;8.844;2024-02-21T02:31:09;9.02;;;4.53;;
72569;SDS011;60594;50.204;8.844;2024-02-21T02:33:54;11.70;;;3.63;;
72569;SDS011;60594;50.204;8.844;2024-02-21T02:36:39;9.40;;;4.07;;
72569;SDS011;60594;50.204;8.844;2024-02-21T02:39:24;9.05;;;3.70;;
72569;SDS011;60594;50.204;8.844;2024-02-21T02:42:09;9.07;;;3.78;;
72569;SDS011;60594;50.204;8.844;2024-02-21T02:44:54;13.35;;;4.40;;
72569;SDS011;60594;50.204;8.844;2024-02-21T02:47:39;8.05;;;3.65;;
72569;SDS011;60594;50.204;8.844;2024-02-21T02:50:25;9.27;;;4.20;;
72569;SDS011;60594;50.204;8.844;2024-02-21T02:53:10;11.45;;;3.63;;
72569;SDS011;60594;50.204;8.844;2024-02-21T02:55:56;11.77;;;4.50;;
72569;SDS011;60594;50.204;8.844;2024-02-21T02:58:40;11.57;;;4.38;;
72569;SDS011;60594;50.204;8.844;2024-02-21T03:01:25;13.05;;;4.72;;
72569;SDS011;60594;50.204;8.844;2024-02-21T03:04:10;9.27;;;4.20;;
72569;SDS011;60594;50.204;8.844;2024-02-21T03:06:55;13.63;;;4.32;;
72569;SDS011;60594;50.204;8.844;2024-02-21T03:09:40;14.70;;;4.22;;
72569;SDS011;60594;50.204;8.844;2024-02-21T03:12:27;8.68;;;3.55;;
72569;SDS011;60594;50.204;8.844;2024-02-21T03:15:13;8.65;;;3.80;;
72569;SDS011;60594;50.204;8.844;2024-02-21T03:17:58;10.93;;;4.05;;
72569;SDS011;60594;50.204;8.844;2024-02-21T03:20:43;10.90;;;3.75;;
72569;SDS011;60594;50.204;8.844;2024-02-21T03:23:28;9.77;;;4.05;;
72569;SDS011;60594;50.204;8.844;2024-02-21T03:26:13;12.25;;;4.35;;
72569;SDS011;60594;50.204;8.844;2024-02-21T03:29:02;9.30;;;4.30;;
72569;SDS011;60594;50.204;8.844;2024-02-21T03:31:47;9.57;;;3.70;;
72569;SDS011;60594;50.204;8.844;2024-02-21T03:34:32;8.88;;;4.57;;
72569;SDS011;60594;50.204;8.844;2024-02-21T03:37:17;9.77;;;4.28;;
72569;SDS011;60594;50.204;8.844;2024-02-21T03:40:05;11.55;;;4.57;;
72569;SDS011;60594;50.204;8.844;2024-02-21T03:42:51;10.02;;;4.20;;
72569;SDS011;60594;50.204;8.844;2024-02-21T03:45:37;18.73;;;5.28;;
72569;SDS011;60594;50.204;8.844;2024-02-21T03:48:21;12.80;;;4.45;;
72569;SDS011;60594;50.204;8.844;2024-02-21T03:51:06;12.98;;;4.40;;
72569;SDS011;60594;50.204;8.844;2024-02-21T03:53:51;11.43;;;4.78;;
72569;SDS011;60594;50.204;8.844;2024-02-21T03:56:37;14.23;;;4.93;;
72569;SDS011;60594;50.204;8.844;2024-02-21T03:59:23;12.15;;;5.45;;
72569;SDS011;60594;50.204;8.844;2024-02-21T04:02:08;11.82;;;4.53;;
72569;SDS011;60594;50.204;8.844;2024-02-21T04:04:53;10.68;;;4.68;;
72569;SDS011;60594;50.204;8.844;2024-02-21T04:07:38;14.60;;;4.90;;
72569;SDS011;60594;50.204;8.844;2024-02-21T04:10:23;13.20;;;4.70;;
72569;SDS011;60594;50.204;8.844;2024-02-21T04:13:08;12.82;;;3.92;;
72569;SDS011;60594;50.204;8.844;2024-02-21T04:15:54;10.05;;;4.47;;
72569;SDS011;60594;50.204;8.844;2024-02-21T04:18:39;9.48;;;4.18;;
72569;SDS011;60594;50.204;8.844;2024-02-21T04:21:24;11.13;;;4.30;;
72569;SDS011;60594;50.204;8.844;2024-02-21T04:24:09;13.10;;;4.72;;
72569;SDS011;60594;50.204;8.844;2024-02-21T04:26:53;11.35;;;4.65;;
72569;SDS011;60594;50.204;8.844;2024-02-21T04:29:39;10.88;;;4.35;;
72569;SDS011;60594;50.204;8.844;2024-02-21T04:32:24;9.23;;;4.63;;
72569;SDS011;60594;50.204;8.844;2024-02-21T04:35:09;14.25;;;5.00;;
72569;SDS011;60594;50.204;8.844;2024-02-21T04:37:54;11.43;;;4.15;;
72569;SDS011;60594;50.204;8.844;2024-02-21T04:40:40;13.00;;;4.60;;
72569;SDS011;60594;50.204;8.844;2024-02-21T04:43:25;11.02;;;4.50;;
72569;SDS011;60594;50.204;8.844;2024-02-21T04:46:10;10.90;;;4.45;;
72569;SDS011;60594;50.204;8.844;2024-02-21T04:48:55;12.30;;;4.50;;
72569;SDS011;60594;50.204;8.844;2024-02-21T04:51:41;11.82;;;4.50;;
72569;SDS011;60594;50.204;8.844;2024-02-21T04:54:26;11.10;;;4.30;;
72569;SDS011;60594;50.204;8.844;2024-02-21T04:57:11;12.68;;;4.53;;
72569;SDS011;60594;50.204;8.844;2024-02-21T04:59:56;9.52;;;4.13;;
72569;SDS011;60594;50.204;8.844;2024-02-21T05:02:40;12.95;;;4.63;;
72569;SDS011;60594;50.204;8.844;2024-02-21T05:05:25;11.88;;;4.45;;
72569;SDS011;60594;50.204;8.844;2024-02-21T05:08:10;9.38;;;4.03;;
72569;SDS011;60594;50.204;8.844;2024-02-21T05:10:55;11.25;;;4.13;;
72569;SDS011;60594;50.204;8.844;2024-02-21T05:13:40;10.40;;;4.40;;
72569;SDS011;60594;50.204;8.844;2024-02-21T05:16:25;10.75;;;4.40;;
72569;SDS011;60594;50.204;8.844;2024-02-21T05:19:10;10.95;;;4.72;;
72569;SDS011;60594;50.204;8.844;2024-02-21T05:21:55;10.48;;;4.38;;
72569;SDS011;60594;50.204;8.844;2024-02-21T05:24:40;9.13;;;3.92;;
72569;SDS011;60594;50.204;8.844;2024-02-21T05:27:25;11.18;;;4.00;;
72569;SDS011;60594;50.204;8.844;2024-02-21T05:30:10;12.23;;;3.95;;
72569;SDS011;60594;50.204;8.844;2024-02-21T05:32:55;10.13;;;4.15;;
72569;SDS011;60594;50.204;8.844;2024-02-21T05:35:40;9.35;;;3.80;;
72569;SDS011;60594;50.204;8.844;2024-02-21T05:38:25;10.60;;;3.88;;
72569;SDS011;60594;50.204;8.844;2024-02-21T05:41:11;7.53;;;3.72;;
72569;SDS011;60594;50.204;8.844;2024-02-21T05:43:56;9.70;;;3.85;;
72569;SDS011;60594;50.204;8.844;2024-02-21T05:46:41;9.00;;;3.95;;
72569;SDS011;60594;50.204;8.844;2024-02-21T05:49:26;14.82;;;3.75;;
72569;SDS011;60594;50.204;8.844;2024-02-21T05:52:11;11.32;;;4.13;;
72569;SDS011;60594;50.204;8.844;2024-02-21T05:54:55;16.02;;;4.70;;
72569;SDS011;60594;50.204;8.844;2024-02-21T05:57:40;11.88;;;4.18;;
72569;SDS011;60594;50.204;8.844;2024-02-21T06:00:25;9.90;;;4.05;;
72569;SDS011;60594;50.204;8.844;2024-02-21T06:03:10;11.75;;;4.70;;
72569;SDS011;60594;50.204;8.844;2024-02-21T06:05:55;10.52;;;3.90;;
72569;SDS011;60594;50.204;8.844;2024-02-21T06:08:41;9.70;;;4.30;;
72569;SDS011;60594;50.204;8.844;2024-02-21T06:11:26;12.55;;;4.43;;
72569;SDS011;60594;50.204;8.844;2024-02-21T06:14:11;9.70;;;4.25;;
72569;SDS011;60594;50.204;8.844;2024-02-21T06:16:55;9.18;;;3.92;;
72569;SDS011;60594;50.204;8.844;2024-02-21T06:19:41;12.50;;;4.18;;
72569;SDS011;60594;50.204;8.844;2024-02-21T06:25:12;11.50;;;4.45;;
72569;SDS011;60594;50.204;8.844;2024-02-21T06:27:57;10.10;;;4.43;;
72569;SDS011;60594;50.204;8.844;2024-02-21T06:30:43;10.75;;;4.60;;
72569;SDS011;60594;50.204;8.844;2024-02-21T06:33:27;10.88;;;4.70;;
72569;SDS011;60594;50.204;8.844;2024-02-21T06:36:13;12.85;;;5.15;;
72569;SDS011;60594;50.204;8.844;2024-02-21T06:38:58;11.82;;;5.05;;
72569;SDS011;60594;50.204;8.844;2024-02-21T06:41:44;10.00;;;4.47;;
72569;SDS011;60594;50.204;8.844;2024-02-21T06:44:28;9.88;;;4.80;;
72569;SDS011;60594;50.204;8.844;2024-02-21T06:47:13;12.88;;;4.65;;
72569;SDS011;60594;50.204;8.844;2024-02-21T06:49:58;10.32;;;4.00;;
72569;SDS011;60594;50.204;8.844;2024-02-21T06:52:43;10.32;;;4.40;;
72569;SDS011;60594;50.204;8.844;2024-02-21T06:55:28;11.77;;;4.10;;
72569;SDS011;60594;50.204;8.844;2024-02-21T06:58:13;15.40;;;4.25;;
72569;SDS011;60594;50.204;8.844;2024-02-21T07:01:00;11.18;;;4.40;;
72569;SDS011;60594;50.204;8.844;2024-02-21T07:03:45;9.07;;;4.32;;
72569;SDS011;60594;50.204;8.844;2024-02-21T07:06:29;11.60;;;4.60;;
72569;SDS011;60594;50.204;8.844;2024-02-21T07:09:16;8.95;;;4.25;;
72569;SDS011;60594;50.204;8.844;2024-02-21T07:12:01;10.57;;;4.88;;
72569;SDS011;60594;50.204;8.844;2024-02-21T07:14:46;10.27;;;4.13;;
72569;SDS011;60594;50.204;8.844;2024-02-21T07:17:31;11.35;;;4.80;;
72569;SDS011;60594;50.204;8.844;2024-02-21T07:20:16;10.73;;;4.95;;
72569;SDS011;60594;50.204;8.844;2024-02-21T07:23:01;11.80;;;4.32;;
72569;SDS011;60594;50.204;8.844;2024-02-21T07:25:46;11.73;;;4.80;;
72569;SDS011;60594;50.204;8.844;2024-02-21T07:28:31;13.43;;;5.43;;
72569;SDS011;60594;50.204;8.844;2024-02-21T07:31:16;13.68;;;4.97;;
72569;SDS011;60594;50.204;8.844;2024-02-21T07:34:01;12.65;;;4.40;;
72569;SDS011;60594;50.204;8.844;2024-02-21T07:36:46;11.88;;;5.05;;
72569;SDS011;60594;50.204;8.844;2024-02-21T07:39:31;11.15;;;4.82;;
72569;SDS011;60594;50.204;8.844;2024-02-21T07:42:16;13.82;;;4.97;;
72569;SDS011;60594;50.204;8.844;2024-02-21T07:45:00;11.43;;;4.72;;
72569;SDS011;60594;50.204;8.844;2024-02-21T07:47:46;11.23;;;4.75;;
72569;SDS011;60594;50.204;8.844;2024-02-21T07:50:30;10.02;;;4.72;;
72569;SDS011;60594;50.204;8.844;2024-02-21T07:53:16;11.52;;;4.28;;
72569;SDS011;60594;50.204;8.844;2024-02-21T07:56:01;10.45;;;4.65;;
72569;SDS011;60594;50.204;8.844;2024-02-21T07:58:46;8.77;;;3.70;;
72569;SDS011;60594;50.204;8.844;2024-02-21T08:01:30;10.25;;;4.05;;
72569;SDS011;60594;50.204;8.844;2024-02-21T08:04:16;9.15;;;4.57;;
72569;SDS011;60594;50.204;8.844;2024-02-21T08:07:00;8.05;;;3.55;;
72569;SDS011;60594;50.204;8.844;2024-02-21T08:09:45;10.38;;;4.13;;
72569;SDS011;60594;50.204;8.844;2024-02-21T08:12:30;8.95;;;3.88;;
72569;SDS011;60594;50.204;8.844;2024-02-21T08:15:15;8.23;;;3.83;;
72569;SDS011;60594;50.204;8.844;2024-02-21T08:18:00;8.18;;;3.75;;
72569;SDS011;60594;50.204;8.844;2024-02-21T08:20:46;10.07;;;3.42;;
72569;SDS011;60594;50.204;8.844;2024-02-21T08:23:31;10.23;;;3.92;;
72569;SDS011;60594;50.204;8.844;2024-02-21T08:26:17;8.75;;;2.88;;
72569;SDS011;60594;50.204;8.844;2024-02-21T08:29:02;8.63;;;3.45;;
72569;SDS011;60594;50.204;8.844;2024-02-21T08:31:47;10.25;;;3.60;;
72569;SDS011;60594;50.204;8.844;2024-02-21T08:34:32;6.38;;;3.10;;
72569;SDS011;60594;50.204;8.844;2024-02-21T08:37:18;9.50;;;3.70;;
72569;SDS011;60594;50.204;8.844;2024-02-21T08:40:03;9.40;;;3.45;;
72569;SDS011;60594;50.204;8.844;2024-02-21T08:42:52;8.90;;;3.40;;
72569;SDS011;60594;50.204;8.844;2024-02-21T08:45:38;8.38;;;3.25;;
72569;SDS011;60594;50.204;8.844;2024-02-21T08:48:23;7.45;;;3.63;;
72569;SDS011;60594;50.204;8.844;2024-02-21T08:51:10;7.40;;;3.35;;
72569;SDS011;60594;50.204;8.844;2024-02-21T08:53:55;8.80;;;3.13;;
72569;SDS011;60594;50.204;8.844;2024-02-21T08:56:40;8.85;;;3.58;;
72569;SDS011;60594;50.204;8.844;2024-02-21T08:59:26;8.52;;;3.15;;
72569;SDS011;60594;50.204;8.844;2024-02-21T09:02:11;7.60;;;3.45;;
72569;SDS011;60594;50.204;8.844;2024-02-21T09:04:56;8.23;;;3.35;;
72569;SDS011;60594;50.204;8.844;2024-02-21T09:07:41;10.20;;;3.70;;
72569;SDS011;60594;50.204;8.844;2024-02-21T09:10:26;9.05;;;3.30;;
72569;SDS011;60594;50.204;8.844;2024-02-21T09:13:11;8.82;;;3.80;;
72569;SDS011;60594;50.204;8.844;2024-02-21T09:15:56;7.75;;;3.28;;
72569;SDS011;60594;50.204;8.844;2024-02-21T09:18:41;6.72;;;3.33;;
72569;SDS011;60594;50.204;8.844;2024-02-21T09:21:27;9.60;;;3.85;;
72569;SDS011;60594;50.204;8.844;2024-02-21T09:24:12;10.15;;;3.78;;
72569;SDS011;60594;50.204;8.844;2024-02-21T09:26:57;7.57;;;2.97;;
72569;SDS011;60594;50.204;8.844;2024-02-21T09:29:42;7.32;;;3.38;;
72569;SDS011;60594;50.204;8.844;2024-02-21T09:32:27;9.57;;;3.53;;
72569;SDS011;60594;50.204;8.844;2024-02-21T09:35:12;8.70;;;3.47;;
72569;SDS011;60594;50.204;8.844;2024-02-21T09:37:57;8.68;;;3.90;;
72569;SDS011;60594;50.204;8.844;2024-02-21T09:40:42;9.70;;;3.35;;
72569;SDS011;60594;50.204;8.844;2024-02-21T09:43:27;9.57;;;3.55;;
72569;SDS011;60594;50.204;8.844;2024-02-21T09:46:15;8.90;;;3.75;;
72569;SDS011;60594;50.204;8.844;2024-02-21T09:49:27;11.88;;;4.00;;
72569;SDS011;60594;50.204;8.844;2024-02-21T09:52:16;9.10;;;3.53;;
72569;SDS011;60594;50.204;8.844;2024-02-21T09:55:02;9.50;;;3.80;;
72569;SDS011;60594;50.204;8.844;2024-02-21T09:57:49;9.43;;;3.83;;
72569;SDS011;60594;50.204;8.844;2024-02-21T10:00:44;6.75;;;3.53;;
72569;SDS011;60594;50.204;8.844;2024-02-21T10:03:29;7.35;;;3.15;;
72569;SDS011;60594;50.204;8.844;2024-02-21T10:06:14;9.73;;;3.70;;
72569;SDS011;60594;50.204;8.844;2024-02-21T10:08:59;6.68;;;3.30;;
72569;SDS011;60594;50.204;8.844;2024-02-21T10:11:44;8.25;;;3.50;;
72569;SDS011;60594;50.204;8.844;2024-02-21T10:14:28;7.43;;;3.33;;
72569;SDS011;60594;50.204;8.844;2024-02-21T10:17:17;7.88;;;3.10;;
72569;SDS011;60594;50.204;8.844;2024-02-21T10:20:11;9.65;;;3.10;;
72569;SDS011;60594;50.204;8.844;2024-02-21T10:23:05;11.75;;;3.67;;
72569;SDS011;60594;50.204;8.844;2024-02-21T10:25:53;9.18;;;3.25;;
72569;SDS011;60594;50.204;8.844;2024-02-21T10:28:38;8.73;;;2.97;;
72569;SDS011;60594;50.204;8.844;2024-02-21T10:31:27;6.70;;;2.95;;
72569;SDS011;60594;50.204;8.844;2024-02-21T10:34:13;8.30;;;3.17;;
72569;SDS011;60594;50.204;8.844;2024-02-21T10:37:04;8.68;;;2.75;;
72569;SDS011;60594;50.204;8.844;2024-02-21T10:39:50;7.65;;;2.97;;
72569;SDS011;60594;50.204;8.844;2024-02-21T10:42:36;6.95;;;2.70;;
72569;SDS011;60594;50.204;8.844;2024-02-21T10:45:22;8.13;;;3.30;;
72569;SDS011;60594;50.204;8.844;2024-02-21T10:48:38;6.78;;;2.97;;
72569;SDS011;60594;50.204;8.844;2024-02-21T10:51:29;7.90;;;3.28;;
72569;SDS011;60594;50.204;8.844;2024-02-21T10:57:25;7.45;;;2.92;;
72569;SDS011;60594;50.204;8.844;2024-02-21T11:00:12;7.45;;;2.90;;
72569;SDS011;60594;50.204;8.844;2024-02-21T11:03:02;6.15;;;2.97;;
72569;SDS011;60594;50.204;8.844;2024-02-21T11:05:48;6.88;;;3.15;;
72569;SDS011;60594;50.204;8.844;2024-02-21T11:08:34;8.00;;;3.17;;
72569;SDS011;60594;50.204;8.844;2024-02-21T11:11:19;7.45;;;3.15;;
72569;SDS011;60594;50.204;8.844;2024-02-21T11:14:09;12.70;;;3.67;;
72569;SDS011;60594;50.204;8.844;2024-02-21T11:16:55;7.70;;;3.30;;
72569;SDS011;60594;50.204;8.844;2024-02-21T11:19:43;8.07;;;3.85;;
72569;SDS011;60594;50.204;8.844;2024-02-21T11:22:28;7.68;;;3.00;;
72569;SDS011;60594;50.204;8.844;2024-02-21T11:25:21;7.07;;;3.05;;
72569;SDS011;60594;50.204;8.844;2024-02-21T11:28:06;6.13;;;2.70;;
72569;SDS011;60594;50.204;8.844;2024-02-21T11:30:52;7.88;;;3.00;;
72569;SDS011;60594;50.204;8.844;2024-02-21T11:33:39;8.63;;;3.33;;
72569;SDS011;60594;50.204;8.844;2024-02-21T11:36:28;6.65;;;3.05;;
72569;SDS011;60594;50.204;8.844;2024-02-21T11:39:17;7.72;;;3.50;;
72569;SDS011;60594;50.204;8.844;2024-02-21T11:42:09;6.32;;;3.08;;
72569;SDS011;60594;50.204;8.844;2024-02-21T11:44:59;7.57;;;3.65;;
72569;SDS011;60594;50.204;8.844;2024-02-21T11:47:45;6.97;;;2.92;;
72569;SDS011;60594;50.204;8.844;2024-02-21T11:50:29;7.50;;;3.20;;
72569;SDS011;60594;50.204;8.844;2024-02-21T11:53:15;6.38;;;2.97;;
72569;SDS011;60594;50.204;8.844;2024-02-21T11:56:00;8.07;;;3.13;;
72569;SDS011;60594;50.204;8.844;2024-02-21T11:58:48;6.72;;;3.60;;
72569;SDS011;60594;50.204;8.844;2024-02-21T12:01:33;8.85;;;3.60;;
72569;SDS011;60594;50.204;8.844;2024-02-21T12:04:18;7.95;;;3.78;;
72569;SDS011;60594;50.204;8.844;2024-02-21T12:07:04;7.00;;;3.13;;
72569;SDS011;60594;50.204;8.844;2024-02-21T12:09:50;8.52;;;3.55;;
72569;SDS011;60594;50.204;8.844;2024-02-21T12:12:36;7.32;;;3.55;;
72569;SDS011;60594;50.204;8.844;2024-02-21T12:15:22;11.68;;;3.40;;
72569;SDS011;60594;50.204;8.844;2024-02-21T12:18:07;8.48;;;3.13;;
72569;SDS011;60594;50.204;8.844;2024-02-21T12:20:52;7.28;;;3.13;;
72569;SDS011;60594;50.204;8.844;2024-02-21T12:23:38;8.50;;;3.08;;
72569;SDS011;60594;50.204;8.844;2024-02-21T12:26:24;6.88;;;2.88;;
72569;SDS011;60594;50.204;8.844;2024-02-21T12:29:10;6.80;;;3.05;;
72569;SDS011;60594;50.204;8.844;2024-02-21T12:31:55;6.22;;;3.08;;
72569;SDS011;60594;50.204;8.844;2024-02-21T12:34:40;8.27;;;3.03;;
72569;SDS011;60594;50.204;8.844;2024-02-21T12:37:25;9.70;;;3.25;;
72569;SDS011;60594;50.204;8.844;2024-02-21T12:40:10;7.10;;;3.70;;
72569;SDS011;60594;50.204;8.844;2024-02-21T12:42:56;8.40;;;3.15;;
72569;SDS011;60594;50.204;8.844;2024-02-21T12:45:41;7.93;;;2.95;;
72569;SDS011;60594;50.204;8.844;2024-02-21T12:48:26;7.47;;;2.88;;
72569;SDS011;60594;50.204;8.844;2024-02-21T12:51:10;9.25;;;3.33;;
72569;SDS011;60594;50.204;8.844;2024-02-21T12:53:56;5.80;;;2.67;;
72569;SDS011;60594;50.204;8.844;2024-02-21T12:56:41;12.38;;;3.35;;
72569;SDS011;60594;50.204;8.844;2024-02-21T12:59:26;11.90;;;4.43;;
72569;SDS011;60594;50.204;8.844;2024-02-21T13:02:12;7.30;;;3.17;;
72569;SDS011;60594;50.204;8.844;2024-02-21T13:04:58;6.85;;;3.40;;
72569;SDS011;60594;50.204;8.844;2024-02-21T13:07:44;6.55;;;2.97;;
72569;SDS011;60594;50.204;8.844;2024-02-21T13:10:29;8.88;;;3.38;;
72569;SDS011;60594;50.204;8.844;2024-02-21T13:13:14;10.43;;;4.20;;
72569;SDS011;60594;50.204;8.844;2024-02-21T13:15:59;11.50;;;4.88;;
72569;SDS011;60594;50.204;8.844;2024-02-21T13:18:44;7.55;;;2.85;;
72569;SDS011;60594;50.204;8.844;2024-02-21T13:21:32;10.30;;;3.22;;
72569;SDS011;60594;50.204;8.844;2024-02-21T13:24:17;9.50;;;3.95;;
72569;SDS011;60594;50.204;8.844;2024-02-21T13:27:02;7.28;;;3.10;;
72569;SDS011;60594;50.204;8.844;2024-02-21T13:29:47;9.75;;;3.58;;
72569;SDS011;60594;50.204;8.844;2024-02-21T13:32:32;5.90;;;2.60;;
72569;SDS011;60594;50.204;8.844;2024-02-21T13:35:17;6.60;;;2.40;;
72569;SDS011;60594;50.204;8.844;2024-02-21T13:38:03;6.20;;;3.22;;
72569;SDS011;60594;50.204;8.844;2024-02-21T13:40:48;16.63;;;3.85;;
72569;SDS011;60594;50.204;8.844;2024-02-21T13:43:33;10.07;;;3.33;;
72569;SDS011;60594;50.204;8.844;2024-02-21T13:46:18;10.10;;;3.83;;
72569;SDS011;60594;50.204;8.844;2024-02-21T13:49:05;15.05;;;4.00;;
72569;SDS011;60594;50.204;8.844;2024-02-21T13:51:51;8.35;;;2.60;;
72569;SDS011;60594;50.204;8.844;2024-02-21T13:54:36;7.43;;;2.75;;
72569;SDS011;60594;50.204;8.844;2024-02-21T13:57:21;6.05;;;2.58;;
72569;SDS011;60594;50.204;8.844;2024-02-21T14:00:06;6.07;;;2.03;;
72569;SDS011;60594;50.204;8.844;2024-02-21T14:02:57;8.23;;;3.13;;
72569;SDS011;60594;50.204;8.844;2024-02-21T14:05:44;7.72;;;2.47;;
72569;SDS011;60594;50.204;8.844;2024-02-21T14:08:29;8.25;;;2.38;;
72569;SDS011;60594;50.204;8.844;2024-02-21T14:11:14;5.60;;;2.25;;
72569;SDS011;60594;50.204;8.844;2024-02-21T14:13:59;5.80;;;2.30;;
72569;SDS011;60594;50.204;8.844;2024-02-21T14:16:44;8.90;;;2.40;;
72569;SDS011;60594;50.204;8.844;2024-02-21T14:19:28;11.52;;;2.85;;
72569;SDS011;60594;50.204;8.844;2024-02-21T14:22:13;8.07;;;2.30;;
72569;SDS011;60594;50.204;8.844;2024-02-21T14:24:58;6.75;;;2.30;;
72569;SDS011;60594;50.204;8.844;2024-02-21T14:27:43;7.78;;;2.40;;
72569;SDS011;60594;50.204;8.844;2024-02-21T14:30:28;8.48;;;2.50;;
72569;SDS011;60594;50.204;8.844;2024-02-21T14:33:13;9.18;;;2.72;;
72569;SDS011;60594;50.204;8.844;2024-02-21T14:35:58;4.55;;;1.98;;
72569;SDS011;60594;50.204;8.844;2024-02-21T14:38:44;6.40;;;1.92;;
72569;SDS011;60594;50.204;8.844;2024-02-21T14:41:29;7.38;;;2.22;;
72569;SDS011;60594;50.204;8.844;2024-02-21T14:44:15;6.25;;;1.98;;
72569;SDS011;60594;50.204;8.844;2024-02-21T14:47:00;8.80;;;2.33;;
72569;SDS011;60594;50.204;8.844;2024-02-21T14:49:45;6.00;;;2.33;;
72569;SDS011;60594;50.204;8.844;2024-02-21T14:52:29;7.35;;;2.53;;
72569;SDS011;60594;50.204;8.844;2024-02-21T14:55:15;5.30;;;2.10;;
72569;SDS011;60594;50.204;8.844;2024-02-21T14:58:00;7.93;;;1.75;;
72569;SDS011;60594;50.204;8.844;2024-02-21T15:00:45;6.47;;;2.25;;
72569;SDS011;60594;50.204;8.844;2024-02-21T15:03:31;5.72;;;2.03;;
72569;SDS011;60594;50.204;8.844;2024-02-21T15:06:16;9.32;;;2.45;;
72569;SDS011;60594;50.204;8.844;2024-02-21T15:09:01;5.18;;;2.13;;
72569;SDS011;60594;50.204;8.844;2024-02-21T15:11:48;5.68;;;2.00;;
72569;SDS011;60594;50.204;8.844;2024-02-21T15:14:32;8.32;;;2.00;;
72569;SDS011;60594;50.204;8.844;2024-02-21T15:17:17;6.05;;;1.92;;
72569;SDS011;60594;50.204;8.844;2024-02-21T15:20:02;5.05;;;1.90;;
72569;SDS011;60594;50.204;8.844;2024-02-21T15:22:49;4.75;;;2.00;;
72569;SDS011;60594;50.204;8.844;2024-02-21T15:25:34;5.88;;;2.05;;
72569;SDS011;60594;50.204;8.844;2024-02-21T15:28:19;5.68;;;2.00;;
72569;SDS011;60594;50.204;8.844;2024-02-21T15:31:04;6.13;;;2.03;;
72569;SDS011;60594;50.204;8.844;2024-02-21T15:33:52;5.95;;;2.08;;
72569;SDS011;60594;50.204;8.844;2024-02-21T15:36:37;7.22;;;2.80;;
72569;SDS011;60594;50.204;8.844;2024-02-21T15:39:22;6.47;;;2.00;;
72569;SDS011;60594;50.204;8.844;2024-02-21T15:42:08;6.30;;;1.80;;
72569;SDS011;60594;50.204;8.844;2024-02-21T15:44:52;7.82;;;1.95;;
72569;SDS011;60594;50.204;8.844;2024-02-21T15:47:37;6.03;;;2.30;;
72569;SDS011;60594;50.204;8.844;2024-02-21T15:50:22;5.75;;;2.05;;
72569;SDS011;60594;50.204;8.844;2024-02-21T15:53:07;5.13;;;2.00;;
72569;SDS011;60594;50.204;8.844;2024-02-21T15:55:52;7.93;;;2.20;;
72569;SDS011;60594;50.204;8.844;2024-02-21T15:58:38;6.22;;;1.90;;
72569;SDS011;60594;50.204;8.844;2024-02-21T16:01:22;6.35;;;1.90;;
72569;SDS011;60594;50.204;8.844;2024-02-21T16:04:08;4.93;;;2.25;;
72569;SDS011;60594;50.204;8.844;2024-02-21T16:06:53;7.30;;;2.20;;
72569;SDS011;60594;50.204;8.844;2024-02-21T16:09:38;5.47;;;2.40;;
72569;SDS011;60594;50.204;8.844;2024-02-21T16:12:28;5.07;;;1.98;;
72569;SDS011;60594;50.204;8.844;2024-02-21T16:15:13;5.80;;;1.73;;
72569;SDS011;60594;50.204;8.844;2024-02-21T16:18:00;6.07;;;2.10;;
72569;SDS011;60594;50.204;8.844;2024-02-21T16:20:44;5.82;;;1.90;;
72569;SDS011;60594;50.204;8.844;2024-02-21T16:23:29;8.15;;;2.50;;
72569;SDS011;60594;50.204;8.844;2024-02-21T16:26:15;9.13;;;2.25;;
72569;SDS011;60594;50.204;8.844;2024-02-21T16:29:00;4.22;;;1.83;;
72569;SDS011;60594;50.204;8.844;2024-02-21T16:31:45;7.78;;;2.22;;
72569;SDS011;60594;50.204;8.844;2024-02-21T16:34:30;6.80;;;2.13;;
72569;SDS011;60594;50.204;8.844;2024-02-21T16:37:16;7.28;;;2.05;;
72569;SDS011;60594;50.204;8.844;2024-02-21T16:40:01;5.38;;;1.83;;
72569;SDS011;60594;50.204;8.844;2024-02-21T16:42:46;7.90;;;2.20;;